sensor_id;sensor_type;location;lat;lon;timestamp;pressure;altitude;pressure_sealevel;temperature;humidity
41690;BME280;27372;42.658;23.256;2023-05-11T00:00:38;93935.78;;;8.92;90.14
41690;BME280;27372;42.658;23.256;2023-05-11T00:03:12;93933.84;;;8.87;90.89
41690;BME280;27372;42.658;23.256;2023-05-11T00:05:37;93938.56;;;8.78;91.13
41690;BME280;27372;42.658;23.256;2023-05-11T00:08:03;93936.53;;;8.80;91.02
41690;BME280;27372;42.658;23.256;2023-05-11T00:10:28;93940.38;;;8.96;90.59
41690;BME280;27372;42.658;23.256;2023-05-11T00:12:55;93950.03;;;8.96;91.21
41690;BME280;27372;42.658;23.256;2023-05-11T00:15:20;93957.19;;;8.89;90.56
41690;BME280;27372;42.658;23.256;2023-05-11T00:17:58;93952.97;;;8.88;90.78
41690;BME280;27372;42.658;23.256;2023-05-11T00:20:29;93949.91;;;8.91;90.80
41690;BME280;27372;42.658;23.256;2023-05-11T00:22:55;93949.31;;;8.89;91.09
41690;BME280;27372;42.658;23.256;2023-05-11T00:25:38;93948.09;;;8.73;91.01
41690;BME280;27372;42.658;23.256;2023-05-11T00:28:03;93955.38;;;8.89;90.59
41690;BME280;27372;42.658;23.256;2023-05-11T00:30:29;93943.81;;;8.78;90.55
41690;BME280;27372;42.658;23.256;2023-05-11T00:32:55;93941.09;;;8.85;90.12
41690;BME280;27372;42.658;23.256;2023-05-11T00:35:20;93949.66;;;8.62;91.10
41690;BME280;27372;42.658;23.256;2023-05-11T00:37:45;93949.34;;;8.70;91.09
41690;BME280;27372;42.658;23.256;2023-05-11T00:40:14;93941.25;;;8.90;90.21
41690;BME280;27372;42.658;23.256;2023-05-11T00:42:46;93938.66;;;8.90;90.68
41690;BME280;27372;42.658;23.256;2023-05-11T00:45:13;93958.50;;;8.79;90.35
41690;BME280;27372;42.658;23.256;2023-05-11T00:47:42;93945.72;;;8.71;91.17
41690;BME280;27372;42.658;23.256;2023-05-11T00:50:13;93952.41;;;8.67;90.87
41690;BME280;27372;42.658;23.256;2023-05-11T00:52:48;93947.34;;;8.53;91.53
41690;BME280;27372;42.658;23.256;2023-05-11T00:55:27;93944.50;;;8.55;92.06
41690;BME280;27372;42.658;23.256;2023-05-11T00:57:53;93953.22;;;8.67;92.23
41690;BME280;27372;42.658;23.256;2023-05-11T01:00:20;93948.94;;;8.54;92.52
41690;BME280;27372;42.658;23.256;2023-05-11T01:02:52;93957.25;;;8.45;92.62
41690;BME280;27372;42.658;23.256;2023-05-11T01:05:18;93958.88;;;8.46;92.30
41690;BME280;27372;42.658;23.256;2023-05-11T01:14:31;93948.75;;;8.31;93.41
41690;BME280;27372;42.658;23.256;2023-05-11T01:17:09;93952.81;;;8.27;93.19
41690;BME280;27372;42.658;23.256;2023-05-11T01:19:49;93958.13;;;8.38;93.40
41690;BME280;27372;42.658;23.256;2023-05-11T01:31:41;93954.41;;;8.28;92.62
41690;BME280;27372;42.658;23.256;2023-05-11T01:34:31;93965.47;;;8.30;92.92
41690;BME280;27372;42.658;23.256;2023-05-11T01:37:18;93956.44;;;8.26;92.49
41690;BME280;27372;42.658;23.256;2023-05-11T01:40:11;93965.88;;;8.27;92.58
41690;BME280;27372;42.658;23.256;2023-05-11T01:42:47;93952.81;;;8.27;91.84
41690;BME280;27372;42.658;23.256;2023-05-11T01:45:15;93963.72;;;8.23;92.01
41690;BME280;27372;42.658;23.256;2023-05-11T01:47:42;93955.88;;;8.23;91.94
41690;BME280;27372;42.658;23.256;2023-05-11T01:50:09;93961.66;;;8.26;92.21
41690;BME280;27372;42.658;23.256;2023-05-11T01:52:36;93966.34;;;8.42;90.50
41690;BME280;27372;42.658;23.256;2023-05-11T01:55:04;93956.59;;;8.31;90.66
41690;BME280;27372;42.658;23.256;2023-05-11T01:57:36;93965.50;;;8.48;89.88
41690;BME280;27372;42.658;23.256;2023-05-11T02:00:02;93958.53;;;8.61;89.37
41690;BME280;27372;42.658;23.256;2023-05-11T02:02:35;93957.00;;;8.53;88.66
41690;BME280;27372;42.658;23.256;2023-05-11T02:05:08;93960.97;;;8.55;88.71
41690;BME280;27372;42.658;23.256;2023-05-11T02:07:35;93954.72;;;8.57;88.92
41690;BME280;27372;42.658;23.256;2023-05-11T02:10:08;93947.38;;;8.47;89.28
41690;BME280;27372;42.658;23.256;2023-05-11T02:12:38;93958.00;;;8.70;88.58
41690;BME280;27372;42.658;23.256;2023-05-11T02:15:06;93944.63;;;8.60;88.58
41690;BME280;27372;42.658;23.256;2023-05-11T02:17:37;93951.09;;;8.58;88.40
41690;BME280;27372;42.658;23.256;2023-05-11T02:20:08;93942.44;;;8.76;88.21
41690;BME280;27372;42.658;23.256;2023-05-11T02:22:36;93959.13;;;8.63;87.59
41690;BME280;27372;42.658;23.256;2023-05-11T02:25:03;93960.25;;;8.48;88.20
41690;BME280;27372;42.658;23.256;2023-05-11T02:27:29;93954.63;;;8.45;88.74
41690;BME280;27372;42.658;23.256;2023-05-11T02:30:03;93953.09;;;8.37;88.70
41690;BME280;27372;42.658;23.256;2023-05-11T02:32:34;93953.69;;;8.39;88.58
41690;BME280;27372;42.658;23.256;2023-05-11T02:35:22;93938.31;;;8.49;87.86
41690;BME280;27372;42.658;23.256;2023-05-11T02:37:55;93947.75;;;8.69;87.61
41690;BME280;27372;42.658;23.256;2023-05-11T02:40:29;93950.31;;;8.57;86.69
41690;BME280;27372;42.658;23.256;2023-05-11T02:43:12;93948.47;;;8.58;86.50
41690;BME280;27372;42.658;23.256;2023-05-11T02:45:43;93949.00;;;8.48;86.48
41690;BME280;27372;42.658;23.256;2023-05-11T02:48:26;93942.66;;;8.55;86.64
41690;BME280;27372;42.658;23.256;2023-05-11T02:54:36;93945.28;;;8.55;86.04
41690;BME280;27372;42.658;23.256;2023-05-11T02:57:04;93947.09;;;8.36;86.80
41690;BME280;27372;42.658;23.256;2023-05-11T03:03:04;93950.75;;;8.10;87.65
41690;BME280;27372;42.658;23.256;2023-05-11T03:05:36;93944.34;;;8.06;87.54
41690;BME280;27372;42.658;23.256;2023-05-11T03:08:08;93967.31;;;8.04;88.01
41690;BME280;27372;42.658;23.256;2023-05-11T03:10:40;93950.50;;;7.93;88.63
41690;BME280;27372;42.658;23.256;2023-05-11T03:13:06;93956.34;;;7.95;88.92
41690;BME280;27372;42.658;23.256;2023-05-11T03:15:39;93965.97;;;7.95;89.20
41690;BME280;27372;42.658;23.256;2023-05-11T03:24:39;93952.81;;;7.83;89.69
41690;BME280;27372;42.658;23.256;2023-05-11T03:27:32;93960.66;;;7.83;89.74
41690;BME280;27372;42.658;23.256;2023-05-11T03:30:35;93957.63;;;7.86;89.14
41690;BME280;27372;42.658;23.256;2023-05-11T03:33:05;93965.16;;;8.01;89.19
41690;BME280;27372;42.658;23.256;2023-05-11T03:35:32;93963.78;;;8.17;88.19
41690;BME280;27372;42.658;23.256;2023-05-11T03:37:59;93965.66;;;7.84;89.30
41690;BME280;27372;42.658;23.256;2023-05-11T03:40:35;93968.78;;;8.00;89.57
41690;BME280;27372;42.658;23.256;2023-05-11T03:43:44;93974.19;;;8.23;88.00
41690;BME280;27372;42.658;23.256;2023-05-11T03:46:55;93963.78;;;8.17;87.46
41690;BME280;27372;42.658;23.256;2023-05-11T03:52:13;93973.91;;;8.32;87.88
41690;BME280;27372;42.658;23.256;2023-05-11T03:54:48;93972.44;;;7.92;89.12
41690;BME280;27372;42.658;23.256;2023-05-11T03:57:25;93974.25;;;8.17;88.85
41690;BME280;27372;42.658;23.256;2023-05-11T04:00:03;93983.25;;;8.21;88.80
41690;BME280;27372;42.658;23.256;2023-05-11T04:02:32;93981.94;;;8.12;88.28
41690;BME280;27372;42.658;23.256;2023-05-11T04:04:58;93976.09;;;8.09;89.21
41690;BME280;27372;42.658;23.256;2023-05-11T04:07:28;93963.84;;;8.10;88.81
41690;BME280;27372;42.658;23.256;2023-05-11T04:12:52;93992.53;;;7.98;89.27
41690;BME280;27372;42.658;23.256;2023-05-11T04:15:18;93992.94;;;7.95;89.93
41690;BME280;27372;42.658;23.256;2023-05-11T04:17:46;93982.75;;;7.87;89.91
41690;BME280;27372;42.658;23.256;2023-05-11T04:20:15;93982.31;;;7.90;89.06
41690;BME280;27372;42.658;23.256;2023-05-11T04:22:40;93984.09;;;7.96;89.31
41690;BME280;27372;42.658;23.256;2023-05-11T04:25:12;93984.88;;;7.97;89.72
41690;BME280;27372;42.658;23.256;2023-05-11T04:28:10;93986.44;;;8.04;89.33
41690;BME280;27372;42.658;23.256;2023-05-11T04:30:35;93985.00;;;8.08;89.62
41690;BME280;27372;42.658;23.256;2023-05-11T04:33:04;94001.72;;;8.07;88.79
41690;BME280;27372;42.658;23.256;2023-05-11T04:35:29;93989.19;;;8.09;89.24
41690;BME280;27372;42.658;23.256;2023-05-11T04:37:58;93992.13;;;7.95;89.57
41690;BME280;27372;42.658;23.256;2023-05-11T04:40:31;93984.94;;;7.90;90.83
41690;BME280;27372;42.658;23.256;2023-05-11T04:43:07;93996.53;;;8.01;90.20
41690;BME280;27372;42.658;23.256;2023-05-11T04:45:35;93984.56;;;7.86;90.81
41690;BME280;27372;42.658;23.256;2023-05-11T04:48:07;93995.06;;;8.05;90.77
41690;BME280;27372;42.658;23.256;2023-05-11T04:50:38;93998.91;;;8.02;90.21
41690;BME280;27372;42.658;23.256;2023-05-11T04:53:03;93997.53;;;8.00;90.86
41690;BME280;27372;42.658;23.256;2023-05-11T04:55:29;94000.84;;;7.88;91.42
41690;BME280;27372;42.658;23.256;2023-05-11T04:57:54;93994.94;;;7.74;91.34
41690;BME280;27372;42.658;23.256;2023-05-11T05:00:22;94004.47;;;7.87;92.18
41690;BME280;27372;42.658;23.256;2023-05-11T05:02:51;94001.44;;;7.90;91.31
41690;BME280;27372;42.658;23.256;2023-05-11T05:05:25;93997.44;;;7.88;91.98
41690;BME280;27372;42.658;23.256;2023-05-11T05:07:53;93996.31;;;8.02;90.67
41690;BME280;27372;42.658;23.256;2023-05-11T05:10:21;94015.22;;;8.04;91.57
41690;BME280;27372;42.658;23.256;2023-05-11T05:12:50;94008.75;;;7.82;92.38
41690;BME280;27372;42.658;23.256;2023-05-11T05:15:15;94022.63;;;8.07;92.07
41690;BME280;27372;42.658;23.256;2023-05-11T05:17:41;94021.84;;;8.26;97.26
41690;BME280;27372;42.658;23.256;2023-05-11T05:20:12;94008.13;;;8.93;100.00
41690;BME280;27372;42.658;23.256;2023-05-11T05:22:40;94002.78;;;9.18;96.44
41690;BME280;27372;42.658;23.256;2023-05-11T05:25:07;94011.56;;;10.44;100.00
41690;BME280;27372;42.658;23.256;2023-05-11T05:27:35;94000.34;;;11.25;100.00
41690;BME280;27372;42.658;23.256;2023-05-11T05:30:06;94005.16;;;10.64;86.17
41690;BME280;27372;42.658;23.256;2023-05-11T05:32:42;94008.47;;;10.35;85.18
41690;BME280;27372;42.658;23.256;2023-05-11T05:35:36;94009.56;;;11.28;98.59
41690;BME280;27372;42.658;23.256;2023-05-11T05:38:01;94001.69;;;11.28;86.18
41690;BME280;27372;42.658;23.256;2023-05-11T05:40:30;94008.56;;;10.76;84.54
41690;BME280;27372;42.658;23.256;2023-05-11T05:43:16;94014.88;;;11.91;88.76
41690;BME280;27372;42.658;23.256;2023-05-11T05:45:44;94007.16;;;10.97;88.55
41690;BME280;27372;42.658;23.256;2023-05-11T05:48:27;94019.97;;;10.82;81.92
41690;BME280;27372;42.658;23.256;2023-05-11T05:50:55;94023.09;;;11.19;81.50
41690;BME280;27372;42.658;23.256;2023-05-11T05:53:20;94029.22;;;10.96;79.05
41690;BME280;27372;42.658;23.256;2023-05-11T05:55:46;94028.94;;;11.22;84.17
41690;BME280;27372;42.658;23.256;2023-05-11T05:58:11;94028.19;;;11.84;85.80
41690;BME280;27372;42.658;23.256;2023-05-11T06:00:39;94034.66;;;11.93;79.67
41690;BME280;27372;42.658;23.256;2023-05-11T06:03:05;94027.44;;;11.14;76.94
41690;BME280;27372;42.658;23.256;2023-05-11T06:05:30;94034.63;;;11.18;84.58
41690;BME280;27372;42.658;23.256;2023-05-11T06:07:58;94034.63;;;11.76;80.16
41690;BME280;27372;42.658;23.256;2023-05-11T06:13:42;94041.34;;;10.97;76.16
41690;BME280;27372;42.658;23.256;2023-05-11T06:16:08;94047.91;;;11.24;80.61
41690;BME280;27372;42.658;23.256;2023-05-11T06:18:33;94044.16;;;10.96;78.41
41690;BME280;27372;42.658;23.256;2023-05-11T06:21:07;94043.19;;;11.26;81.00
41690;BME280;27372;42.658;23.256;2023-05-11T06:23:32;94035.25;;;10.97;76.49
41690;BME280;27372;42.658;23.256;2023-05-11T06:26:04;94042.94;;;10.98;80.79
41690;BME280;27372;42.658;23.256;2023-05-11T06:28:29;94039.13;;;11.47;81.58
41690;BME280;27372;42.658;23.256;2023-05-11T06:30:57;94051.16;;;10.90;76.22
41690;BME280;27372;42.658;23.256;2023-05-11T06:33:28;94058.00;;;11.73;77.43
41690;BME280;27372;42.658;23.256;2023-05-11T06:35:56;94050.53;;;11.24;77.03
41690;BME280;27372;42.658;23.256;2023-05-11T06:38:58;94062.50;;;10.67;77.45
41690;BME280;27372;42.658;23.256;2023-05-11T06:41:29;94068.38;;;11.50;78.99
41690;BME280;27372;42.658;23.256;2023-05-11T06:43:57;94064.19;;;10.61;76.38
41690;BME280;27372;42.658;23.256;2023-05-11T06:46:22;94056.03;;;10.03;79.09
41690;BME280;27372;42.658;23.256;2023-05-11T06:48:48;94049.03;;;9.97;80.41
41690;BME280;27372;42.658;23.256;2023-05-11T06:51:17;94049.66;;;10.11;80.52
41690;BME280;27372;42.658;23.256;2023-05-11T06:53:45;94059.66;;;9.90;81.76
41690;BME280;27372;42.658;23.256;2023-05-11T06:57:26;94067.03;;;9.82;81.84
41690;BME280;27372;42.658;23.256;2023-05-11T07:06:59;94048.31;;;9.66;82.29
41690;BME280;27372;42.658;23.256;2023-05-11T07:09:29;94066.56;;;9.73;82.42
41690;BME280;27372;42.658;23.256;2023-05-11T07:12:17;94063.38;;;9.71;82.44
41690;BME280;27372;42.658;23.256;2023-05-11T07:15:23;94070.25;;;9.84;82.27
41690;BME280;27372;42.658;23.256;2023-05-11T07:18:13;94057.00;;;9.78;82.10
41690;BME280;27372;42.658;23.256;2023-05-11T07:24:04;94065.09;;;9.77;81.11
41690;BME280;27372;42.658;23.256;2023-05-11T07:27:01;94054.69;;;10.13;80.44
41690;BME280;27372;42.658;23.256;2023-05-11T07:29:26;94069.56;;;10.54;79.96
41690;BME280;27372;42.658;23.256;2023-05-11T07:31:52;94058.38;;;10.47;79.11
41690;BME280;27372;42.658;23.256;2023-05-11T07:34:44;94068.41;;;10.38;78.85
41690;BME280;27372;42.658;23.256;2023-05-11T07:37:23;94075.31;;;10.09;80.28
41690;BME280;27372;42.658;23.256;2023-05-11T07:39:54;94070.66;;;10.23;80.02
41690;BME280;27372;42.658;23.256;2023-05-11T07:42:22;94074.56;;;10.32;79.60
41690;BME280;27372;42.658;23.256;2023-05-11T07:44:47;94067.72;;;10.43;79.59
41690;BME280;27372;42.658;23.256;2023-05-11T07:47:13;94074.31;;;10.10;80.04
41690;BME280;27372;42.658;23.256;2023-05-11T07:49:43;94067.69;;;10.31;79.42
41690;BME280;27372;42.658;23.256;2023-05-11T07:52:08;94079.28;;;10.42;78.33
41690;BME280;27372;42.658;23.256;2023-05-11T07:54:43;94075.78;;;10.18;78.39
41690;BME280;27372;42.658;23.256;2023-05-11T07:57:43;94076.75;;;10.59;78.21
41690;BME280;27372;42.658;23.256;2023-05-11T08:00:11;94073.78;;;10.44;77.64
41690;BME280;27372;42.658;23.256;2023-05-11T08:02:37;94083.72;;;10.41;76.81
41690;BME280;27372;42.658;23.256;2023-05-11T08:05:02;94082.69;;;10.78;77.25
41690;BME280;27372;42.658;23.256;2023-05-11T08:07:31;94077.63;;;11.12;76.01
41690;BME280;27372;42.658;23.256;2023-05-11T08:09:59;94077.44;;;10.90;74.29
41690;BME280;27372;42.658;23.256;2023-05-11T08:12:25;94085.94;;;11.21;74.42
41690;BME280;27372;42.658;23.256;2023-05-11T08:14:50;94085.44;;;11.48;73.06
41690;BME280;27372;42.658;23.256;2023-05-11T08:17:15;94084.91;;;11.34;71.92
41690;BME280;27372;42.658;23.256;2023-05-11T08:19:41;94091.63;;;11.71;70.93
41690;BME280;27372;42.658;23.256;2023-05-11T08:22:16;94074.81;;;11.43;70.63
41690;BME280;27372;42.658;23.256;2023-05-11T08:24:48;94072.16;;;11.43;71.58
41690;BME280;27372;42.658;23.256;2023-05-11T08:29:49;94086.66;;;11.86;70.14
41690;BME280;27372;42.658;23.256;2023-05-11T08:32:18;94075.47;;;11.79;70.45
41690;BME280;27372;42.658;23.256;2023-05-11T08:34:43;94087.13;;;11.54;70.03
41690;BME280;27372;42.658;23.256;2023-05-11T08:37:16;94084.94;;;11.51;70.30
41690;BME280;27372;42.658;23.256;2023-05-11T08:39:57;94095.91;;;11.60;69.56
41690;BME280;27372;42.658;23.256;2023-05-11T08:42:32;94093.22;;;11.72;70.94
41690;BME280;27372;42.658;23.256;2023-05-11T08:45:10;94088.66;;;11.67;71.41
41690;BME280;27372;42.658;23.256;2023-05-11T08:47:41;94077.78;;;11.92;70.81
41690;BME280;27372;42.658;23.256;2023-05-11T08:50:16;94083.91;;;11.81;69.75
41690;BME280;27372;42.658;23.256;2023-05-11T08:52:44;94088.72;;;11.84;70.05
41690;BME280;27372;42.658;23.256;2023-05-11T08:58:06;94078.00;;;12.03;68.21
41690;BME280;27372;42.658;23.256;2023-05-11T09:00:32;94074.38;;;11.92;68.77
41690;BME280;27372;42.658;23.256;2023-05-11T09:03:02;94068.03;;;11.76;68.96
41690;BME280;27372;42.658;23.256;2023-05-11T09:05:32;94069.81;;;11.87;70.59
41690;BME280;27372;42.658;23.256;2023-05-11T09:08:11;94073.59;;;11.62;70.52
41690;BME280;27372;42.658;23.256;2023-05-11T09:10:41;94070.13;;;11.45;71.44
41690;BME280;27372;42.658;23.256;2023-05-11T09:13:18;94056.63;;;11.70;70.62
41690;BME280;27372;42.658;23.256;2023-05-11T09:16:17;94063.25;;;12.02;69.81
41690;BME280;27372;42.658;23.256;2023-05-11T09:18:50;94064.41;;;11.94;69.24
41690;BME280;27372;42.658;23.256;2023-05-11T09:21:46;94077.72;;;12.16;68.17
41690;BME280;27372;42.658;23.256;2023-05-11T09:24:12;94088.88;;;12.57;68.79
41690;BME280;27372;42.658;23.256;2023-05-11T09:26:40;94079.13;;;12.07;68.41
41690;BME280;27372;42.658;23.256;2023-05-11T09:29:12;94081.00;;;11.94;69.71
41690;BME280;27372;42.658;23.256;2023-05-11T09:31:48;94075.53;;;12.13;69.05
41690;BME280;27372;42.658;23.256;2023-05-11T09:34:21;94067.97;;;12.17;69.39
41690;BME280;27372;42.658;23.256;2023-05-11T09:36:55;94066.59;;;12.14;69.77
41690;BME280;27372;42.658;23.256;2023-05-11T09:39:52;94078.66;;;12.44;69.64
41690;BME280;27372;42.658;23.256;2023-05-11T09:51:07;94069.41;;;12.58;68.57
41690;BME280;27372;42.658;23.256;2023-05-11T09:54:15;94070.91;;;12.71;69.10
41690;BME280;27372;42.658;23.256;2023-05-11T09:56:55;94055.09;;;12.54;69.78
41690;BME280;27372;42.658;23.256;2023-05-11T09:59:43;94059.91;;;12.57;69.08
41690;BME280;27372;42.658;23.256;2023-05-11T10:02:40;94042.44;;;12.51;68.63
41690;BME280;27372;42.658;23.256;2023-05-11T10:05:25;94051.72;;;12.76;69.53
41690;BME280;27372;42.658;23.256;2023-05-11T10:08:29;94043.19;;;13.08;67.58
41690;BME280;27372;42.658;23.256;2023-05-11T10:10:55;94047.97;;;13.11;68.86
41690;BME280;27372;42.658;23.256;2023-05-11T10:13:43;94037.84;;;13.25;68.36
41690;BME280;27372;42.658;23.256;2023-05-11T10:16:13;94025.56;;;13.36;66.97
41690;BME280;27372;42.658;23.256;2023-05-11T10:18:44;94033.97;;;12.88;67.45
41690;BME280;27372;42.658;23.256;2023-05-11T10:21:44;94036.31;;;13.29;66.76
41690;BME280;27372;42.658;23.256;2023-05-11T10:24:16;94036.56;;;13.77;66.71
41690;BME280;27372;42.658;23.256;2023-05-11T10:26:42;94038.75;;;13.86;66.20
41690;BME280;27372;42.658;23.256;2023-05-11T10:29:30;94026.91;;;13.61;65.77
41690;BME280;27372;42.658;23.256;2023-05-11T10:32:08;94022.72;;;13.65;66.79
41690;BME280;27372;42.658;23.256;2023-05-11T10:38:08;94015.84;;;14.24;65.61
41690;BME280;27372;42.658;23.256;2023-05-11T10:40:37;94016.00;;;14.44;63.90
41690;BME280;27372;42.658;23.256;2023-05-11T10:52:24;94029.47;;;14.86;62.23
41690;BME280;27372;42.658;23.256;2023-05-11T10:58:11;94037.63;;;15.32;59.90
41690;BME280;27372;42.658;23.256;2023-05-11T11:01:08;94026.56;;;15.51;59.93
41690;BME280;27372;42.658;23.256;2023-05-11T11:04:16;94027.38;;;14.88;60.99
41690;BME280;27372;42.658;23.256;2023-05-11T11:07:25;94008.09;;;14.93;61.15
41690;BME280;27372;42.658;23.256;2023-05-11T11:12:20;94014.69;;;14.14;62.90
41690;BME280;27372;42.658;23.256;2023-05-11T11:19:45;94028.44;;;14.49;62.04
41690;BME280;27372;42.658;23.256;2023-05-11T11:30:33;94016.22;;;14.05;63.87
41690;BME280;27372;42.658;23.256;2023-05-11T11:42:18;94013.44;;;14.22;63.77
41690;BME280;27372;42.658;23.256;2023-05-11T11:45:35;94006.69;;;14.04;64.55
41690;BME280;27372;42.658;23.256;2023-05-11T11:48:08;93999.44;;;13.57;64.62
41690;BME280;27372;42.658;23.256;2023-05-11T11:50:34;94003.53;;;13.42;65.56
41690;BME280;27372;42.658;23.256;2023-05-11T11:53:02;93999.31;;;13.46;65.68
41690;BME280;27372;42.658;23.256;2023-05-11T11:55:49;94005.34;;;13.69;65.28
41690;BME280;27372;42.658;23.256;2023-05-11T12:01:11;94004.13;;;13.49;65.43
41690;BME280;27372;42.658;23.256;2023-05-11T12:07:55;94001.59;;;13.15;66.58
41690;BME280;27372;42.658;23.256;2023-05-11T12:11:04;94013.09;;;12.65;68.49
41690;BME280;27372;42.658;23.256;2023-05-11T12:13:36;93989.34;;;12.82;69.14
41690;BME280;27372;42.658;23.256;2023-05-11T12:16:21;93995.03;;;12.96;68.13
41690;BME280;27372;42.658;23.256;2023-05-11T12:24:13;93983.69;;;12.34;69.47
41690;BME280;27372;42.658;23.256;2023-05-11T12:27:09;93991.75;;;12.27;69.23
41690;BME280;27372;42.658;23.256;2023-05-11T12:30:08;93977.91;;;12.15;71.11
41690;BME280;27372;42.658;23.256;2023-05-11T12:32:37;93985.56;;;12.16;70.33
41690;BME280;27372;42.658;23.256;2023-05-11T12:35:06;93981.19;;;12.05;70.90
41690;BME280;27372;42.658;23.256;2023-05-11T12:37:41;93972.09;;;12.13;71.79
41690;BME280;27372;42.658;23.256;2023-05-11T12:42:56;93966.94;;;11.72;72.61
41690;BME280;27372;42.658;23.256;2023-05-11T12:45:48;93959.72;;;11.33;73.54
41690;BME280;27372;42.658;23.256;2023-05-11T12:48:39;93965.94;;;11.44;74.54
41690;BME280;27372;42.658;23.256;2023-05-11T12:51:46;93967.63;;;11.50;74.81
41690;BME280;27372;42.658;23.256;2023-05-11T12:54:34;93959.03;;;11.38;74.30
41690;BME280;27372;42.658;23.256;2023-05-11T12:57:27;93960.06;;;11.71;74.09
41690;BME280;27372;42.658;23.256;2023-05-11T13:00:33;93953.25;;;11.70;74.07
41690;BME280;27372;42.658;23.256;2023-05-11T13:03:01;93955.75;;;11.47;75.29
41690;BME280;27372;42.658;23.256;2023-05-11T13:05:27;93940.31;;;11.68;74.02
41690;BME280;27372;42.658;23.256;2023-05-11T13:08:02;93938.56;;;11.74;74.22
41690;BME280;27372;42.658;23.256;2023-05-11T13:10:47;93940.50;;;12.13;72.08
41690;BME280;27372;42.658;23.256;2023-05-11T13:13:28;93936.50;;;12.10;72.67
41690;BME280;27372;42.658;23.256;2023-05-11T13:16:09;93934.78;;;11.99;72.60
41690;BME280;27372;42.658;23.256;2023-05-11T13:18:54;93945.59;;;12.19;71.53
41690;BME280;27372;42.658;23.256;2023-05-11T13:21:27;93937.13;;;12.17;72.39
41690;BME280;27372;42.658;23.256;2023-05-11T13:24:04;93940.84;;;12.38;72.18
41690;BME280;27372;42.658;23.256;2023-05-11T13:26:29;93928.06;;;12.47;71.95
41690;BME280;27372;42.658;23.256;2023-05-11T13:28:55;93928.22;;;12.63;71.99
41690;BME280;27372;42.658;23.256;2023-05-11T13:31:23;93933.84;;;12.66;71.16
41690;BME280;27372;42.658;23.256;2023-05-11T13:33:52;93918.31;;;12.92;70.85
41690;BME280;27372;42.658;23.256;2023-05-11T13:36:18;93921.94;;;13.13;69.40
41690;BME280;27372;42.658;23.256;2023-05-11T13:38:49;93925.88;;;13.11;69.10
41690;BME280;27372;42.658;23.256;2023-05-11T13:41:15;93926.63;;;13.06;69.69
41690;BME280;27372;42.658;23.256;2023-05-11T13:43:41;93923.34;;;13.21;69.77
41690;BME280;27372;42.658;23.256;2023-05-11T13:46:06;93924.78;;;13.34;70.04
41690;BME280;27372;42.658;23.256;2023-05-11T13:48:31;93920.16;;;13.19;68.76
41690;BME280;27372;42.658;23.256;2023-05-11T13:51:00;93918.13;;;13.26;69.05
41690;BME280;27372;42.658;23.256;2023-05-11T13:53:25;93923.25;;;13.38;68.26
41690;BME280;27372;42.658;23.256;2023-05-11T13:59:46;93924.72;;;13.51;68.93
41690;BME280;27372;42.658;23.256;2023-05-11T14:02:15;93914.91;;;13.46;68.11
41690;BME280;27372;42.658;23.256;2023-05-11T14:05:03;93914.00;;;13.35;67.54
41690;BME280;27372;42.658;23.256;2023-05-11T14:07:53;93912.97;;;13.36;67.28
41690;BME280;27372;42.658;23.256;2023-05-11T14:18:07;93902.50;;;12.92;66.77
41690;BME280;27372;42.658;23.256;2023-05-11T14:20:37;93916.53;;;12.98;66.83
41690;BME280;27372;42.658;23.256;2023-05-11T14:23:05;93903.41;;;12.81;66.13
41690;BME280;27372;42.658;23.256;2023-05-11T14:25:31;93912.78;;;12.94;66.51
41690;BME280;27372;42.658;23.256;2023-05-11T14:28:04;93905.28;;;13.08;65.88
41690;BME280;27372;42.658;23.256;2023-05-11T14:33:51;93908.34;;;12.99;64.74
41690;BME280;27372;42.658;23.256;2023-05-11T14:36:16;93904.09;;;12.93;63.27
41690;BME280;27372;42.658;23.256;2023-05-11T14:38:42;93910.13;;;12.94;63.75
41690;BME280;27372;42.658;23.256;2023-05-11T14:41:08;93912.75;;;13.16;63.70
41690;BME280;27372;42.658;23.256;2023-05-11T14:43:40;93906.72;;;12.93;63.69
41690;BME280;27372;42.658;23.256;2023-05-11T14:46:08;93906.88;;;12.81;63.27
41690;BME280;27372;42.658;23.256;2023-05-11T14:48:36;93905.50;;;12.79;63.85
41690;BME280;27372;42.658;23.256;2023-05-11T14:51:02;93908.31;;;12.94;64.47
41690;BME280;27372;42.658;23.256;2023-05-11T14:53:29;93911.81;;;13.00;64.87
41690;BME280;27372;42.658;23.256;2023-05-11T14:55:55;93906.38;;;12.62;63.28
41690;BME280;27372;42.658;23.256;2023-05-11T14:58:21;93905.06;;;12.65;64.36
41690;BME280;27372;42.658;23.256;2023-05-11T15:00:51;93919.09;;;12.70;65.26
41690;BME280;27372;42.658;23.256;2023-05-11T15:03:17;93920.72;;;12.49;65.58
41690;BME280;27372;42.658;23.256;2023-05-11T15:05:45;93898.03;;;12.48;66.33
41690;BME280;27372;42.658;23.256;2023-05-11T15:08:11;93906.00;;;12.31;67.34
41690;BME280;27372;42.658;23.256;2023-05-11T15:10:36;93897.09;;;12.15;64.91
41690;BME280;27372;42.658;23.256;2023-05-11T15:13:17;93906.97;;;12.25;66.85
41690;BME280;27372;42.658;23.256;2023-05-11T15:15:42;93911.97;;;12.26;66.95
41690;BME280;27372;42.658;23.256;2023-05-11T15:18:10;93905.56;;;12.00;65.92
41690;BME280;27372;42.658;23.256;2023-05-11T15:20:38;93910.00;;;12.17;66.90
41690;BME280;27372;42.658;23.256;2023-05-11T15:23:04;93914.53;;;12.21;66.36
41690;BME280;27372;42.658;23.256;2023-05-11T15:25:37;93902.91;;;12.17;65.80
41690;BME280;27372;42.658;23.256;2023-05-11T15:28:05;93903.34;;;12.09;65.63
41690;BME280;27372;42.658;23.256;2023-05-11T15:30:33;93908.44;;;11.99;66.20
41690;BME280;27372;42.658;23.256;2023-05-11T15:32:59;93904.13;;;12.09;65.66
41690;BME280;27372;42.658;23.256;2023-05-11T15:35:24;93903.88;;;11.94;66.82
41690;BME280;27372;42.658;23.256;2023-05-11T15:37:50;93896.94;;;11.88;66.63
41690;BME280;27372;42.658;23.256;2023-05-11T15:40:15;93909.88;;;11.89;67.42